sensor_id;sensor_type;location;lat;lon;timestamp;pressure;altitude;pressure_sealevel;temperature;humidity
46007;BME280;31738;50.188;8.524;2024-02-28T00:01:37;99010.44;;;6.96;74.56
46007;BME280;31738;50.188;8.524;2024-02-28T00:04:03;99005.56;;;6.93;75.03
46007;BME280;31738;50.188;8.524;2024-02-28T00:06:28;99011.97;;;6.92;74.79
46007;BME280;31738;50.188;8.524;2024-02-28T00:08:54;99015.13;;;6.89;75.49
46007;BME280;31738;50.188;8.524;2024-02-28T00:11:20;99013.19;;;6.84;74.97
46007;BME280;31738;50.188;8.524;2024-02-28T00:13:46;99014.16;;;6.78;75.12
46007;BME280;31738;50.188;8.524;2024-02-28T00:16:11;99018.81;;;6.71;75.59
46007;BME280;31738;50.188;8.524;2024-02-28T00:18:37;99015.28;;;6.66;75.48
46007;BME280;31738;50.188;8.524;2024-02-28T00:21:03;99014.69;;;6.64;75.49
46007;BME280;31738;50.188;8.524;2024-02-28T00:23:29;99012.50;;;6.61;75.83
46007;BME280;31738;50.188;8.524;2024-02-28T00:25:55;99016.81;;;6.62;75.77
46007;BME280;31738;50.188;8.524;2024-02-28T00:28:20;99021.00;;;6.58;75.43
46007;BME280;31738;50.188;8.524;2024-02-28T00:30:46;99011.63;;;6.55;75.48
46007;BME280;31738;50.188;8.524;2024-02-28T00:33:11;99011.53;;;6.50;75.75
46007;BME280;31738;50.188;8.524;2024-02-28T00:35:37;99014.69;;;6.47;75.57
46007;BME280;31738;50.188;8.524;2024-02-28T00:38:02;99006.09;;;6.45;75.74
46007;BME280;31738;50.188;8.524;2024-02-28T00:40:28;99013.31;;;6.45;75.87
46007;BME280;31738;50.188;8.524;2024-02-28T00:42:54;99018.66;;;6.45;76.06
46007;BME280;31738;50.188;8.524;2024-02-28T00:45:19;99031.38;;;6.43;76.24
46007;BME280;31738;50.188;8.524;2024-02-28T00:47:45;99027.66;;;6.44;75.74
46007;BME280;31738;50.188;8.524;2024-02-28T00:50:10;99026.28;;;6.41;75.94
46007;BME280;31738;50.188;8.524;2024-02-28T00:52:37;99020.38;;;6.39;76.01
46007;BME280;31738;50.188;8.524;2024-02-28T00:55:03;99031.88;;;6.40;76.09
46007;BME280;31738;50.188;8.524;2024-02-28T00:57:30;99029.09;;;6.35;75.86
46007;BME280;31738;50.188;8.524;2024-02-28T00:59:56;99033.31;;;6.31;76.07
46007;BME280;31738;50.188;8.524;2024-02-28T01:02:21;99034.84;;;6.27;75.95
46007;BME280;31738;50.188;8.524;2024-02-28T01:04:47;99031.00;;;6.23;75.73
46007;BME280;31738;50.188;8.524;2024-02-28T01:07:13;99040.53;;;6.19;76.02
46007;BME280;31738;50.188;8.524;2024-02-28T01:09:38;99040.44;;;6.14;76.33
46007;BME280;31738;50.188;8.524;2024-02-28T01:12:04;99033.72;;;6.11;76.34
46007;BME280;31738;50.188;8.524;2024-02-28T01:14:29;99043.56;;;6.11;76.03
46007;BME280;31738;50.188;8.524;2024-02-28T01:16:55;99049.38;;;6.08;76.46
46007;BME280;31738;50.188;8.524;2024-02-28T01:19:20;99046.59;;;6.03;76.41
46007;BME280;31738;50.188;8.524;2024-02-28T01:21:46;99048.13;;;5.99;76.17
46007;BME280;31738;50.188;8.524;2024-02-28T01:24:11;99060.50;;;5.93;76.41
46007;BME280;31738;50.188;8.524;2024-02-28T01:26:36;99051.63;;;5.88;76.44
46007;BME280;31738;50.188;8.524;2024-02-28T01:29:02;99053.13;;;5.84;76.50
46007;BME280;31738;50.188;8.524;2024-02-28T01:31:28;99057.25;;;5.80;76.41
46007;BME280;31738;50.188;8.524;2024-02-28T01:33:53;99057.72;;;5.77;76.84
46007;BME280;31738;50.188;8.524;2024-02-28T01:36:21;99059.25;;;5.73;76.62
46007;BME280;31738;50.188;8.524;2024-02-28T01:38:47;99054.16;;;5.71;76.55
46007;BME280;31738;50.188;8.524;2024-02-28T01:41:12;99053.81;;;5.68;76.65
46007;BME280;31738;50.188;8.524;2024-02-28T01:43:37;99059.03;;;5.63;76.89
46007;BME280;31738;50.188;8.524;2024-02-28T01:46:06;99058.47;;;5.61;76.96
46007;BME280;31738;50.188;8.524;2024-02-28T01:48:38;99064.72;;;5.55;77.20
46007;BME280;31738;50.188;8.524;2024-02-28T01:51:05;99063.91;;;5.54;77.16
46007;BME280;31738;50.188;8.524;2024-02-28T01:53:31;99056.38;;;5.51;77.37
46007;BME280;31738;50.188;8.524;2024-02-28T01:55:56;99055.81;;;5.49;77.48
46007;BME280;31738;50.188;8.524;2024-02-28T01:58:22;99049.34;;;5.45;77.23
46007;BME280;31738;50.188;8.524;2024-02-28T02:00:49;99047.97;;;5.43;77.55
46007;BME280;31738;50.188;8.524;2024-02-28T02:03:15;99045.75;;;5.40;77.70
46007;BME280;31738;50.188;8.524;2024-02-28T02:05:41;99051.53;;;5.37;77.68
46007;BME280;31738;50.188;8.524;2024-02-28T02:08:07;99045.88;;;5.33;77.71
46007;BME280;31738;50.188;8.524;2024-02-28T02:10:32;99046.34;;;5.30;77.55
46007;BME280;31738;50.188;8.524;2024-02-28T02:13:05;99051.91;;;5.28;77.60
46007;BME280;31738;50.188;8.524;2024-02-28T02:15:31;99048.06;;;5.24;77.50
46007;BME280;31738;50.188;8.524;2024-02-28T02:17:56;99043.22;;;5.21;77.60
46007;BME280;31738;50.188;8.524;2024-02-28T02:20:22;99053.28;;;5.19;77.69
46007;BME280;31738;50.188;8.524;2024-02-28T02:22:48;99047.38;;;5.17;77.98
46007;BME280;31738;50.188;8.524;2024-02-28T02:25:13;99055.81;;;5.14;78.21
46007;BME280;31738;50.188;8.524;2024-02-28T02:27:39;99051.56;;;5.13;77.99
46007;BME280;31738;50.188;8.524;2024-02-28T02:30:05;99057.06;;;5.12;77.83
46007;BME280;31738;50.188;8.524;2024-02-28T02:32:30;99055.69;;;5.09;78.10
46007;BME280;31738;50.188;8.524;2024-02-28T02:34:56;99045.53;;;5.06;78.29
46007;BME280;31738;50.188;8.524;2024-02-28T02:37:21;99048.41;;;5.05;78.34
46007;BME280;31738;50.188;8.524;2024-02-28T02:39:47;99050.72;;;5.01;78.47
46007;BME280;31738;50.188;8.524;2024-02-28T02:42:12;99046.66;;;4.99;78.45
46007;BME280;31738;50.188;8.524;2024-02-28T02:44:40;99043.41;;;4.97;78.05
46007;BME280;31738;50.188;8.524;2024-02-28T02:47:05;99048.97;;;4.95;78.54
46007;BME280;31738;50.188;8.524;2024-02-28T02:49:31;99049.44;;;4.92;78.44
46007;BME280;31738;50.188;8.524;2024-02-28T02:51:56;99051.53;;;4.90;78.50
46007;BME280;31738;50.188;8.524;2024-02-28T02:54:22;99051.75;;;4.89;78.59
46007;BME280;31738;50.188;8.524;2024-02-28T02:56:47;99053.00;;;4.86;78.35
46007;BME280;31738;50.188;8.524;2024-02-28T02:59:13;99057.72;;;4.84;78.42
46007;BME280;31738;50.188;8.524;2024-02-28T03:01:38;99058.19;;;4.81;78.32
46007;BME280;31738;50.188;8.524;2024-02-28T03:04:04;99059.47;;;4.79;78.99
46007;BME280;31738;50.188;8.524;2024-02-28T03:06:29;99060.75;;;4.76;78.44
46007;BME280;31738;50.188;8.524;2024-02-28T03:08:55;99058.31;;;4.75;79.02
46007;BME280;31738;50.188;8.524;2024-02-28T03:11:20;99065.69;;;4.73;79.00
46007;BME280;31738;50.188;8.524;2024-02-28T03:13:46;99062.66;;;4.69;79.18
46007;BME280;31738;50.188;8.524;2024-02-28T03:16:11;99068.44;;;4.66;79.36
46007;BME280;31738;50.188;8.524;2024-02-28T03:18:36;99056.44;;;4.64;78.86
46007;BME280;31738;50.188;8.524;2024-02-28T03:21:03;99065.44;;;4.63;79.22
46007;BME280;31738;50.188;8.524;2024-02-28T03:23:29;99061.38;;;4.60;79.49
46007;BME280;31738;50.188;8.524;2024-02-28T03:25:54;99070.41;;;4.59;78.97
46007;BME280;31738;50.188;8.524;2024-02-28T03:28:20;99066.91;;;4.59;79.34
46007;BME280;31738;50.188;8.524;2024-02-28T03:30:45;99083.09;;;4.57;79.10
46007;BME280;31738;50.188;8.524;2024-02-28T03:33:10;99073.72;;;4.55;79.29
46007;BME280;31738;50.188;8.524;2024-02-28T03:35:36;99076.00;;;4.51;78.82
46007;BME280;31738;50.188;8.524;2024-02-28T03:38:01;99078.06;;;4.49;78.76
46007;BME280;31738;50.188;8.524;2024-02-28T03:40:27;99080.72;;;4.49;79.19
46007;BME280;31738;50.188;8.524;2024-02-28T03:42:52;99089.16;;;4.46;79.36
46007;BME280;31738;50.188;8.524;2024-02-28T03:45:18;99084.88;;;4.45;79.38
46007;BME280;31738;50.188;8.524;2024-02-28T03:47:45;99087.78;;;4.44;79.43
46007;BME280;31738;50.188;8.524;2024-02-28T03:50:10;99091.69;;;4.41;79.29
46007;BME280;31738;50.188;8.524;2024-02-28T03:52:36;99094.34;;;4.41;79.52
46007;BME280;31738;50.188;8.524;2024-02-28T03:55:01;99099.28;;;4.38;79.53
46007;BME280;31738;50.188;8.524;2024-02-28T03:57:26;99108.53;;;4.35;79.61
46007;BME280;31738;50.188;8.524;2024-02-28T03:59:52;99105.50;;;4.32;79.58
46007;BME280;31738;50.188;8.524;2024-02-28T04:02:17;99110.00;;;4.31;79.39
46007;BME280;31738;50.188;8.524;2024-02-28T04:04:43;99117.34;;;4.29;79.72
46007;BME280;31738;50.188;8.524;2024-02-28T04:07:08;99117.34;;;4.29;79.41
46007;BME280;31738;50.188;8.524;2024-02-28T04:09:34;99124.75;;;4.27;79.76
46007;BME280;31738;50.188;8.524;2024-02-28T04:11:59;99118.84;;;4.25;79.51
46007;BME280;31738;50.188;8.524;2024-02-28T04:14:24;99128.66;;;4.25;79.65
46007;BME280;31738;50.188;8.524;2024-02-28T04:16:50;99130.75;;;4.23;80.02
46007;BME280;31738;50.188;8.524;2024-02-28T04:19:16;99131.19;;;4.20;79.68
46007;BME280;31738;50.188;8.524;2024-02-28T04:21:41;99120.56;;;4.20;79.84
46007;BME280;31738;50.188;8.524;2024-02-28T04:24:08;99124.22;;;4.19;79.75
46007;BME280;31738;50.188;8.524;2024-02-28T04:26:35;99117.09;;;4.19;79.69
46007;BME280;31738;50.188;8.524;2024-02-28T04:29:01;99125.88;;;4.20;79.75
46007;BME280;31738;50.188;8.524;2024-02-28T04:31:30;99121.56;;;4.19;79.92
46007;BME280;31738;50.188;8.524;2024-02-28T04:33:56;99120.78;;;4.18;80.37
46007;BME280;31738;50.188;8.524;2024-02-28T04:36:22;99128.16;;;4.16;79.95
46007;BME280;31738;50.188;8.524;2024-02-28T04:38:47;99133.91;;;4.13;80.22
46007;BME280;31738;50.188;8.524;2024-02-28T04:41:12;99132.28;;;4.12;79.88
46007;BME280;31738;50.188;8.524;2024-02-28T04:43:38;99134.13;;;4.12;79.92
46007;BME280;31738;50.188;8.524;2024-02-28T04:46:03;99143.34;;;4.09;79.83
46007;BME280;31738;50.188;8.524;2024-02-28T04:48:29;99146.22;;;4.08;80.34
46007;BME280;31738;50.188;8.524;2024-02-28T04:50:54;99142.75;;;4.07;80.20
46007;BME280;31738;50.188;8.524;2024-02-28T04:53:20;99160.72;;;4.05;80.21
46007;BME280;31738;50.188;8.524;2024-02-28T04:55:45;99156.47;;;4.04;79.83
46007;BME280;31738;50.188;8.524;2024-02-28T04:58:11;99160.56;;;4.00;79.82
46007;BME280;31738;50.188;8.524;2024-02-28T05:00:36;99167.38;;;3.96;80.60
46007;BME280;31738;50.188;8.524;2024-02-28T05:03:02;99165.16;;;3.93;80.66
46007;BME280;31738;50.188;8.524;2024-02-28T05:05:27;99163.97;;;3.89;79.88
46007;BME280;31738;50.188;8.524;2024-02-28T05:07:53;99171.34;;;3.87;79.81
46007;BME280;31738;50.188;8.524;2024-02-28T05:10:18;99178.91;;;3.84;80.42
46007;BME280;31738;50.188;8.524;2024-02-28T05:12:43;99184.44;;;3.82;80.77
46007;BME280;31738;50.188;8.524;2024-02-28T05:15:09;99184.88;;;3.79;80.14
46007;BME280;31738;50.188;8.524;2024-02-28T05:17:34;99183.28;;;3.78;80.48
46007;BME280;31738;50.188;8.524;2024-02-28T05:20:00;99182.06;;;3.74;80.64
46007;BME280;31738;50.188;8.524;2024-02-28T05:22:25;99183.31;;;3.72;80.11
46007;BME280;31738;50.188;8.524;2024-02-28T05:24:51;99187.81;;;3.71;80.79
46007;BME280;31738;50.188;8.524;2024-02-28T05:27:17;99185.59;;;3.68;80.50
46007;BME280;31738;50.188;8.524;2024-02-28T05:29:42;99183.97;;;3.67;80.55
46007;BME280;31738;50.188;8.524;2024-02-28T05:32:08;99187.06;;;3.64;80.81
46007;BME280;31738;50.188;8.524;2024-02-28T05:34:34;99191.56;;;3.64;80.60
46007;BME280;31738;50.188;8.524;2024-02-28T05:37:00;99196.28;;;3.62;80.58
46007;BME280;31738;50.188;8.524;2024-02-28T05:39:26;99198.13;;;3.61;80.44
46007;BME280;31738;50.188;8.524;2024-02-28T05:41:54;99206.88;;;3.62;80.57
46007;BME280;31738;50.188;8.524;2024-02-28T05:44:20;99205.47;;;3.59;80.61
46007;BME280;31738;50.188;8.524;2024-02-28T05:46:45;99208.13;;;3.59;81.04
46007;BME280;31738;50.188;8.524;2024-02-28T05:49:11;99210.41;;;3.56;80.56
46007;BME280;31738;50.188;8.524;2024-02-28T05:51:36;99203.25;;;3.56;81.08
46007;BME280;31738;50.188;8.524;2024-02-28T05:54:02;99205.91;;;3.56;80.56
46007;BME280;31738;50.188;8.524;2024-02-28T05:56:28;99205.91;;;3.56;80.77
46007;BME280;31738;50.188;8.524;2024-02-28T05:58:55;99211.19;;;3.56;80.32
46007;BME280;31738;50.188;8.524;2024-02-28T06:01:20;99211.19;;;3.56;80.81
46007;BME280;31738;50.188;8.524;2024-02-28T06:03:47;99210.41;;;3.56;80.23
46007;BME280;31738;50.188;8.524;2024-02-28T06:06:13;99205.91;;;3.56;80.87
46007;BME280;31738;50.188;8.524;2024-02-28T06:08:40;99207.53;;;3.57;80.87
46007;BME280;31738;50.188;8.524;2024-02-28T06:11:08;99219.75;;;3.58;80.89
46007;BME280;31738;50.188;8.524;2024-02-28T06:13:35;99217.31;;;3.57;80.64
46007;BME280;31738;50.188;8.524;2024-02-28T06:16:00;99216.50;;;3.56;80.81
46007;BME280;31738;50.188;8.524;2024-02-28T06:18:26;99220.81;;;3.57;81.24
46007;BME280;31738;50.188;8.524;2024-02-28T06:20:56;99219.75;;;3.58;80.82
46007;BME280;31738;50.188;8.524;2024-02-28T06:23:22;99224.03;;;3.59;80.92
46007;BME280;31738;50.188;8.524;2024-02-28T06:25:48;99230.16;;;3.60;80.64
46007;BME280;31738;50.188;8.524;2024-02-28T06:28:14;99228.31;;;3.60;80.92
46007;BME280;31738;50.188;8.524;2024-02-28T06:30:39;99236.50;;;3.59;81.09
46007;BME280;31738;50.188;8.524;2024-02-28T06:33:05;99252.75;;;3.62;81.13
46007;BME280;31738;50.188;8.524;2024-02-28T06:35:31;99239.50;;;3.62;81.38
46007;BME280;31738;50.188;8.524;2024-02-28T06:37:57;99246.66;;;3.62;80.59
46007;BME280;31738;50.188;8.524;2024-02-28T06:40:22;99250.34;;;3.61;80.82
46007;BME280;31738;50.188;8.524;2024-02-28T06:42:48;99245.03;;;3.61;81.05
46007;BME280;31738;50.188;8.524;2024-02-28T06:45:13;99247.47;;;3.62;81.04
46007;BME280;31738;50.188;8.524;2024-02-28T06:47:39;99250.72;;;3.64;81.29
46007;BME280;31738;50.188;8.524;2024-02-28T06:50:05;99256.63;;;3.66;80.94
46007;BME280;31738;50.188;8.524;2024-02-28T06:52:32;99250.91;;;3.69;80.67
46007;BME280;31738;50.188;8.524;2024-02-28T06:54:57;99263.72;;;3.72;80.82
46007;BME280;31738;50.188;8.524;2024-02-28T06:57:25;99258.56;;;3.77;81.47
46007;BME280;31738;50.188;8.524;2024-02-28T06:59:50;99264.47;;;3.79;80.96
46007;BME280;31738;50.188;8.524;2024-02-28T07:02:16;99268.53;;;3.82;81.30
46007;BME280;31738;50.188;8.524;2024-02-28T07:04:41;99273.41;;;3.85;81.41
46007;BME280;31738;50.188;8.524;2024-02-28T07:07:07;99281.16;;;3.86;81.17
46007;BME280;31738;50.188;8.524;2024-02-28T07:09:33;99280.13;;;3.87;81.13
46007;BME280;31738;50.188;8.524;2024-02-28T07:11:59;99280.72;;;3.89;81.47
46007;BME280;31738;50.188;8.524;2024-02-28T07:14:24;99277.03;;;3.90;81.54
46007;BME280;31738;50.188;8.524;2024-02-28T07:16:50;99297.81;;;3.93;81.13
46007;BME280;31738;50.188;8.524;2024-02-28T07:19:17;99290.47;;;3.95;81.21
46007;BME280;31738;50.188;8.524;2024-02-28T07:21:43;99282.28;;;3.97;81.17
46007;BME280;31738;50.188;8.524;2024-02-28T07:24:09;99288.19;;;3.99;81.34
46007;BME280;31738;50.188;8.524;2024-02-28T07:26:34;99298.56;;;4.00;81.38
46007;BME280;31738;50.188;8.524;2024-02-28T07:29:00;99305.53;;;4.01;81.44
46007;BME280;31738;50.188;8.524;2024-02-28T07:31:26;99305.53;;;4.01;81.36
46007;BME280;31738;50.188;8.524;2024-02-28T07:33:51;99307.75;;;4.04;81.68
46007;BME280;31738;50.188;8.524;2024-02-28T07:36:17;99307.75;;;4.04;81.77
46007;BME280;31738;50.188;8.524;2024-02-28T07:38:42;99309.34;;;4.05;81.70
46007;BME280;31738;50.188;8.524;2024-02-28T07:41:08;99307.91;;;4.09;81.64
46007;BME280;31738;50.188;8.524;2024-02-28T07:43:33;99300.53;;;4.11;81.75
46007;BME280;31738;50.188;8.524;2024-02-28T07:46:06;99309.91;;;4.14;82.22
46007;BME280;31738;50.188;8.524;2024-02-28T07:48:32;99314.41;;;4.13;81.55
46007;BME280;31738;50.188;8.524;2024-02-28T07:50:58;99305.38;;;4.14;81.99
46007;BME280;31738;50.188;8.524;2024-02-28T07:53:23;99315.00;;;4.15;82.34
46007;BME280;31738;50.188;8.524;2024-02-28T07:55:49;99312.91;;;4.17;82.14
46007;BME280;31738;50.188;8.524;2024-02-28T07:58:14;99305.56;;;4.19;82.22
46007;BME280;31738;50.188;8.524;2024-02-28T08:00:47;99306.72;;;4.23;82.13
46007;BME280;31738;50.188;8.524;2024-02-28T08:03:13;99304.09;;;4.23;82.50
46007;BME280;31738;50.188;8.524;2024-02-28T08:05:38;99294.06;;;4.25;82.30
46007;BME280;31738;50.188;8.524;2024-02-28T08:08:08;99293.84;;;4.27;82.50
46007;BME280;31738;50.188;8.524;2024-02-28T08:10:34;99294.22;;;4.30;82.16
46007;BME280;31738;50.188;8.524;2024-02-28T08:13:01;99297.03;;;4.35;82.29
46007;BME280;31738;50.188;8.524;2024-02-28T08:15:27;99293.72;;;4.40;82.30
46007;BME280;31738;50.188;8.524;2024-02-28T08:17:52;99295.72;;;4.44;82.12
46007;BME280;31738;50.188;8.524;2024-02-28T08:20:18;99296.69;;;4.50;81.97
46007;BME280;31738;50.188;8.524;2024-02-28T08:22:44;99289.09;;;4.53;82.26
46007;BME280;31738;50.188;8.524;2024-02-28T08:25:09;99289.81;;;4.60;82.19
46007;BME280;31738;50.188;8.524;2024-02-28T08:27:37;99295.06;;;4.67;81.97
46007;BME280;31738;50.188;8.524;2024-02-28T08:30:03;99292.34;;;4.73;82.09
46007;BME280;31738;50.188;8.524;2024-02-28T08:32:28;99298.97;;;4.82;82.77
46007;BME280;31738;50.188;8.524;2024-02-28T08:34:54;99293.59;;;4.89;82.22
46007;BME280;31738;50.188;8.524;2024-02-28T08:37:20;99291.44;;;4.97;82.78
46007;BME280;31738;50.188;8.524;2024-02-28T08:39:45;99292.13;;;5.04;82.80
46007;BME280;31738;50.188;8.524;2024-02-28T08:42:11;99295.53;;;5.11;82.49
46007;BME280;31738;50.188;8.524;2024-02-28T08:44:37;99306.66;;;5.20;82.87
46007;BME280;31738;50.188;8.524;2024-02-28T08:47:03;99313.53;;;5.27;82.36
46007;BME280;31738;50.188;8.524;2024-02-28T08:49:29;99302.44;;;5.30;82.67
46007;BME280;31738;50.188;8.524;2024-02-28T08:51:56;99312.16;;;5.37;82.67
46007;BME280;31738;50.188;8.524;2024-02-28T08:54:22;99309.19;;;5.45;82.74
46007;BME280;31738;50.188;8.524;2024-02-28T08:56:48;99310.50;;;5.54;82.47
46007;BME280;31738;50.188;8.524;2024-02-28T08:59:13;99320.22;;;5.60;82.41
46007;BME280;31738;50.188;8.524;2024-02-28T09:01:39;99321.56;;;5.69;82.47
46007;BME280;31738;50.188;8.524;2024-02-28T09:04:06;99323.88;;;5.77;82.42
46007;BME280;31738;50.188;8.524;2024-02-28T09:06:32;99316.19;;;5.87;82.60
46007;BME280;31738;50.188;8.524;2024-02-28T09:08:57;99314.13;;;6.00;82.16
46007;BME280;31738;50.188;8.524;2024-02-28T09:11:23;99320.84;;;6.14;82.00
46007;BME280;31738;50.188;8.524;2024-02-28T09:13:50;99323.28;;;6.27;81.72
46007;BME280;31738;50.188;8.524;2024-02-28T09:16:16;99330.25;;;6.40;81.40
46007;BME280;31738;50.188;8.524;2024-02-28T09:18:42;99328.75;;;6.55;81.46
46007;BME280;31738;50.188;8.524;2024-02-28T09:21:08;99326.41;;;6.70;81.01
46007;BME280;31738;50.188;8.524;2024-02-28T09:23:33;99337.31;;;6.80;81.12
46007;BME280;31738;50.188;8.524;2024-02-28T09:26:03;99327.19;;;6.94;81.00
46007;BME280;31738;50.188;8.524;2024-02-28T09:28:29;99334.13;;;7.07;80.56
46007;BME280;31738;50.188;8.524;2024-02-28T09:30:54;99333.19;;;7.13;80.65
46007;BME280;31738;50.188;8.524;2024-02-28T09:33:20;99338.47;;;7.24;80.29
46007;BME280;31738;50.188;8.524;2024-02-28T09:35:59;99342.41;;;7.50;80.30
46007;BME280;31738;50.188;8.524;2024-02-28T09:38:27;99344.56;;;7.64;80.05
46007;BME280;31738;50.188;8.524;2024-02-28T09:40:52;99348.31;;;7.63;78.87
46007;BME280;31738;50.188;8.524;2024-02-28T09:43:31;99349.53;;;7.72;78.92
46007;BME280;31738;50.188;8.524;2024-02-28T09:46:04;99351.25;;;7.78;78.77
46007;BME280;31738;50.188;8.524;2024-02-28T09:48:30;99359.25;;;7.78;79.41
46007;BME280;31738;50.188;8.524;2024-02-28T09:51:00;99370.31;;;7.70;78.16
46007;BME280;31738;50.188;8.524;2024-02-28T09:53:26;99363.69;;;7.73;78.69
46007;BME280;31738;50.188;8.524;2024-02-28T09:55:52;99365.00;;;7.87;78.85
46007;BME280;31738;50.188;8.524;2024-02-28T09:58:18;99373.28;;;8.02;77.75
46007;BME280;31738;50.188;8.524;2024-02-28T10:00:46;99363.28;;;8.09;78.05
46007;BME280;31738;50.188;8.524;2024-02-28T10:03:15;99374.47;;;8.22;77.51
46007;BME280;31738;50.188;8.524;2024-02-28T10:05:42;99378.22;;;8.38;77.62
46007;BME280;31738;50.188;8.524;2024-02-28T10:08:07;99378.19;;;8.54;76.58
46007;BME280;31738;50.188;8.524;2024-02-28T10:10:37;99378.94;;;8.50;76.27
46007;BME280;31738;50.188;8.524;2024-02-28T10:13:03;99391.66;;;8.59;76.33
46007;BME280;31738;50.188;8.524;2024-02-28T10:15:30;99391.00;;;8.69;76.25
46007;BME280;31738;50.188;8.524;2024-02-28T10:17:56;99390.81;;;8.76;76.13
46007;BME280;31738;50.188;8.524;2024-02-28T10:20:21;99405.75;;;8.72;75.79
46007;BME280;31738;50.188;8.524;2024-02-28T10:22:47;99410.28;;;8.71;76.02
46007;BME280;31738;50.188;8.524;2024-02-28T10:25:13;99412.22;;;8.76;75.45
46007;BME280;31738;50.188;8.524;2024-02-28T10:27:39;99415.53;;;8.83;76.00
46007;BME280;31738;50.188;8.524;2024-02-28T10:30:05;99407.47;;;8.99;75.55
46007;BME280;31738;50.188;8.524;2024-02-28T10:32:32;99424.56;;;9.15;75.46
46007;BME280;31738;50.188;8.524;2024-02-28T10:34:59;99418.84;;;9.28;74.57
46007;BME280;31738;50.188;8.524;2024-02-28T10:37:27;99431.72;;;9.31;74.48
46007;BME280;31738;50.188;8.524;2024-02-28T10:39:54;99431.19;;;9.29;73.89
46007;BME280;31738;50.188;8.524;2024-02-28T10:42:20;99434.91;;;9.28;73.72
46007;BME280;31738;50.188;8.524;2024-02-28T10:44:48;99442.59;;;9.03;74.15
46007;BME280;31738;50.188;8.524;2024-02-28T10:47:17;99433.78;;;8.86;74.87
46007;BME280;31738;50.188;8.524;2024-02-28T10:49:43;99437.00;;;8.88;75.53
46007;BME280;31738;50.188;8.524;2024-02-28T10:52:10;99446.88;;;9.04;75.45
46007;BME280;31738;50.188;8.524;2024-02-28T10:54:40;99454.78;;;9.15;74.95
46007;BME280;31738;50.188;8.524;2024-02-28T10:57:08;99450.91;;;9.23;74.25
46007;BME280;31738;50.188;8.524;2024-02-28T10:59:34;99463.81;;;9.26;74.01
46007;BME280;31738;50.188;8.524;2024-02-28T11:02:01;99467.53;;;9.25;73.75
46007;BME280;31738;50.188;8.524;2024-02-28T11:04:27;99468.50;;;9.19;74.12
46007;BME280;31738;50.188;8.524;2024-02-28T11:06:56;99472.31;;;9.23;73.94
46007;BME280;31738;50.188;8.524;2024-02-28T11:09:23;99461.75;;;9.33;73.85
46007;BME280;31738;50.188;8.524;2024-02-28T11:11:49;99466.19;;;9.44;73.82
46007;BME280;31738;50.188;8.524;2024-02-28T11:14:16;99471.53;;;9.44;73.89
46007;BME280;31738;50.188;8.524;2024-02-28T11:16:42;99470.63;;;9.55;73.32
46007;BME280;31738;50.188;8.524;2024-02-28T11:19:22;99474.84;;;9.51;73.25
46007;BME280;31738;50.188;8.524;2024-02-28T11:21:54;99468.22;;;9.37;72.18
46007;BME280;31738;50.188;8.524;2024-02-28T11:24:28;99470.28;;;9.30;74.11
46007;BME280;31738;50.188;8.524;2024-02-28T11:26:54;99470.84;;;9.32;74.23
46007;BME280;31738;50.188;8.524;2024-02-28T11:29:27;99468.88;;;9.44;73.71
46007;BME280;31738;50.188;8.524;2024-02-28T11:31:54;99470.13;;;9.58;73.44
46007;BME280;31738;50.188;8.524;2024-02-28T11:34:20;99461.94;;;9.69;73.10
46007;BME280;31738;50.188;8.524;2024-02-28T11:36:49;99469.56;;;9.77;72.53
46007;BME280;31738;50.188;8.524;2024-02-28T11:39:16;99464.81;;;9.84;72.63
46007;BME280;31738;50.188;8.524;2024-02-28T11:41:45;99463.53;;;9.65;72.30
46007;BME280;31738;50.188;8.524;2024-02-28T11:44:18;99473.50;;;9.70;72.78
46007;BME280;31738;50.188;8.524;2024-02-28T11:46:48;99474.59;;;9.74;72.92
46007;BME280;31738;50.188;8.524;2024-02-28T11:49:14;99477.44;;;9.89;72.95
46007;BME280;31738;50.188;8.524;2024-02-28T11:51:44;99466.94;;;10.04;72.09
46007;BME280;31738;50.188;8.524;2024-02-28T11:54:10;99470.75;;;10.08;71.82
46007;BME280;31738;50.188;8.524;2024-02-28T11:56:37;99475.59;;;10.11;71.67
46007;BME280;31738;50.188;8.524;2024-02-28T11:59:03;99473.53;;;10.18;71.67
46007;BME280;31738;50.188;8.524;2024-02-28T12:01:43;99483.13;;;10.14;70.46
46007;BME280;31738;50.188;8.524;2024-02-28T12:04:12;99465.53;;;10.01;71.68
46007;BME280;31738;50.188;8.524;2024-02-28T12:06:39;99473.34;;;10.03;71.86
46007;BME280;31738;50.188;8.524;2024-02-28T12:09:06;99470.84;;;9.96;71.32
46007;BME280;31738;50.188;8.524;2024-02-28T12:11:35;99471.56;;;9.87;71.65
46007;BME280;31738;50.188;8.524;2024-02-28T12:14:05;99473.09;;;9.83;72.15
46007;BME280;31738;50.188;8.524;2024-02-28T12:16:36;99465.38;;;9.86;71.91
46007;BME280;31738;50.188;8.524;2024-02-28T12:19:12;99469.31;;;9.79;71.78
46007;BME280;31738;50.188;8.524;2024-02-28T12:21:39;99457.03;;;9.83;71.63
46007;BME280;31738;50.188;8.524;2024-02-28T12:24:09;99460.38;;;9.95;71.54
46007;BME280;31738;50.188;8.524;2024-02-28T12:26:35;99461.38;;;9.89;71.53
46007;BME280;31738;50.188;8.524;2024-02-28T12:29:01;99460.38;;;9.95;71.27
46007;BME280;31738;50.188;8.524;2024-02-28T12:31:27;99468.47;;;10.00;71.30
46007;BME280;31738;50.188;8.524;2024-02-28T12:33:52;99461.09;;;10.07;71.21
46007;BME280;31738;50.188;8.524;2024-02-28T12:36:19;99453.34;;;10.10;71.07
46007;BME280;31738;50.188;8.524;2024-02-28T12:38:44;99460.25;;;10.06;70.58
46007;BME280;31738;50.188;8.524;2024-02-28T12:41:10;99449.78;;;10.05;71.02
46007;BME280;31738;50.188;8.524;2024-02-28T12:43:36;99443.94;;;10.08;71.06
46007;BME280;31738;50.188;8.524;2024-02-28T12:46:04;99445.56;;;10.09;71.40
46007;BME280;31738;50.188;8.524;2024-02-28T12:48:29;99444.50;;;10.10;70.89
46007;BME280;31738;50.188;8.524;2024-02-28T12:50:56;99448.28;;;10.14;70.94
46007;BME280;31738;50.188;8.524;2024-02-28T12:53:22;99436.63;;;10.03;70.90
46007;BME280;31738;50.188;8.524;2024-02-28T12:55:48;99439.94;;;9.89;70.47
46007;BME280;31738;50.188;8.524;2024-02-28T12:58:13;99437.81;;;9.91;70.82
46007;BME280;31738;50.188;8.524;2024-02-28T13:01:05;99435.22;;;9.96;70.68
46007;BME280;31738;50.188;8.524;2024-02-28T13:03:31;99438.16;;;9.94;71.25
46007;BME280;31738;50.188;8.524;2024-02-28T13:05:56;99430.94;;;10.00;70.99